Aeroporto :
LOGIN :

Iscrizione | Disclaimer

   EN    FR    IT 

 










Sommario :    VFR   VFR Marginale   IFR   IFR Intensivo   IFR Molto Intensivo
Visibilità : 
Base nubi : 
>= 8 km
>= 3000ft
5 / 8 km
1000 / 3000 ft
1500m / 5 km
500 / 1000 ft
800 / 1500m
200 / 500 ft
< 800m
< 200 ft
Simboli :   Temporali  Nebbia  Neve Forte  Precipitazioni Forti  Vento > 20 kt
SIGMETs :   Varie  Temporali  Ghiacco  Turbolenza  Onda orograficha  Ceneri Vulcaniche






- Altitudine del aeroporto : 24 ft
- Codice IATA : IBZ


LEIB - Ibiza

ULTIMO METAR :
  • 091400Z 07018KT 9999 FEW007 28/20 Q1014 NOSIG

METARs OBSOLETI :
  • 091330Z 07019KT CAVOK 29/20 Q1014 NOSIG
  • 091300Z 07017KT 040V100 CAVOK 29/19 Q1014 NOSIG
  • 091230Z 07014KT 050V110 CAVOK 28/19 Q1015 NOSIG
  • 091200Z 07016KT CAVOK 28/19 Q1015 NOSIG
  • 091130Z 07013KT 040V120 CAVOK 29/21 Q1016 NOSIG

TAF TAF LEIB
Valido dal 09 a 09 ore il 10 a 09 ore UTC


090800Z 0909/1009 07015KT 9999 FEW020 TX31/0912Z TN21/1005Z
TEMPO 0909/1009 FEW040TCU
PROB30
TEMPO 0911/0919 07020G30KT
TEMPO 0920/1009 05005KT



MetMap, La meteo Aeronautica in un colpo d'occhio ! - Copyright ORBIFLY Dicembre 2007 - Disclaimer

ORBIFLY MET'MAP TEAM :

Programmazione e sviluppo : Alexandra Zaïnal
Concezione : Baudouin d'Aumeries
Aiuto per la programmazione : Marc-Olivier Méhu
Supporto tecnico e logistico : Manuel Goepfert
Aiuto per la traduzione : Arnaldo La Scala

Contatto : metmap@orbifly.com




FONTI E CREDITI :

   NOAA